createdAt,value
2023-03-15T00:02:16.455Z,97.90
2023-03-15T00:04:44.378Z,97.90
2023-03-15T00:07:12.482Z,97.90
2023-03-15T00:09:40.325Z,97.80
2023-03-15T00:12:08.787Z,97.70
2023-03-15T00:14:39.307Z,97.50
2023-03-15T00:17:07.208Z,97.50
2023-03-15T00:19:35.114Z,97.30
2023-03-15T00:22:02.966Z,97.20
2023-03-15T00:24:30.854Z,96.90
2023-03-15T00:26:58.726Z,96.70
2023-03-15T00:29:26.653Z,96.50
2023-03-15T00:31:56.035Z,96.20
2023-03-15T00:34:26.552Z,96.60
2023-03-15T00:36:54.692Z,96.60
2023-03-15T00:39:25.713Z,96.20
2023-03-15T00:41:56.811Z,96.30
2023-03-15T00:44:25.287Z,96.60
2023-03-15T00:46:53.241Z,96.60
2023-03-15T00:49:22.544Z,96.60
2023-03-15T00:51:50.389Z,96.60
2023-03-15T00:54:18.240Z,96.50
2023-03-15T00:56:46.108Z,96.50
2023-03-15T00:59:13.944Z,96.50
2023-03-15T01:01:44.737Z,96.50
2023-03-15T01:04:12.970Z,96.50
2023-03-15T01:06:42.951Z,96.50
2023-03-15T01:09:10.981Z,96.50
2023-03-15T01:11:38.999Z,96.50
2023-03-15T01:14:08.816Z,96.40
2023-03-15T01:16:36.711Z,96.60
2023-03-15T01:19:05.114Z,96.40
2023-03-15T01:21:33.171Z,96.40
2023-03-15T01:24:02.413Z,96.30
2023-03-15T01:26:30.319Z,96.00
2023-03-15T01:28:58.202Z,96.20
2023-03-15T01:31:28.054Z,96.00
2023-03-15T01:33:56.071Z,95.90
2023-03-15T01:36:24.707Z,95.80
2023-03-15T01:38:53.839Z,95.70
2023-03-15T01:41:24.822Z,95.70
2023-03-15T01:43:52.985Z,95.60
2023-03-15T01:46:27.385Z,95.60
2023-03-15T01:49:01.555Z,95.50
2023-03-15T01:51:34.846Z,95.50
2023-03-15T01:54:08.723Z,95.60
2023-03-15T01:56:42.707Z,95.60
2023-03-15T01:59:16.312Z,95.50
2023-03-15T02:01:45.862Z,95.30
2023-03-15T02:04:18.977Z,95.60
2023-03-15T02:06:48.069Z,95.70
2023-03-15T02:09:19.386Z,95.40
2023-03-15T02:11:49.652Z,95.60
2023-03-15T02:14:18.092Z,95.90
2023-03-15T02:16:46.380Z,95.90
2023-03-15T02:19:35.752Z,95.80
2023-03-15T02:22:17.240Z,95.50
2023-03-15T02:24:55.748Z,95.60
2023-03-15T02:27:30.051Z,95.20
2023-03-15T02:29:58.350Z,94.50
2023-03-15T02:32:26.257Z,93.50
2023-03-15T02:34:54.141Z,93.30
2023-03-15T02:37:22.434Z,93.30
2023-03-15T02:39:50.300Z,93.00
2023-03-15T02:42:19.381Z,93.00
2023-03-15T02:44:50.156Z,93.20
2023-03-15T02:47:23.618Z,93.10
2023-03-15T02:49:53.746Z,93.40
2023-03-15T02:52:22.376Z,93.30
2023-03-15T02:54:50.264Z,93.40
2023-03-15T02:57:20.003Z,93.50
2023-03-15T02:59:50.724Z,93.70
2023-03-15T03:02:18.811Z,93.90
2023-03-15T03:04:46.756Z,93.80
2023-03-15T03:07:14.756Z,94.00
2023-03-15T03:09:42.713Z,93.90
2023-03-15T03:12:10.995Z,93.90
2023-03-15T03:14:38.828Z,93.90
2023-03-15T03:17:08.292Z,93.90
2023-03-15T03:19:36.129Z,93.80
2023-03-15T03:22:04.132Z,94.00
2023-03-15T03:24:32.362Z,94.20
2023-03-15T03:27:00.414Z,94.30
2023-03-15T03:29:28.379Z,94.40
2023-03-15T03:31:56.211Z,94.40
2023-03-15T03:34:25.367Z,94.40
2023-03-15T03:36:53.244Z,94.60
2023-03-15T03:39:21.101Z,94.60
2023-03-15T03:41:49.941Z,94.60
2023-03-15T03:44:18.054Z,94.70
2023-03-15T03:46:46.224Z,94.50
2023-03-15T03:49:14.749Z,94.50
2023-03-15T03:51:43.984Z,94.50
2023-03-15T03:54:11.813Z,94.40
2023-03-15T03:56:40.208Z,94.40
2023-03-15T03:59:08.097Z,94.50
2023-03-15T04:01:36.118Z,94.50
2023-03-15T04:04:04.320Z,94.50
2023-03-15T04:06:32.404Z,94.60
2023-03-15T04:09:03.803Z,94.70
2023-03-15T04:11:31.662Z,94.60
2023-03-15T04:13:59.492Z,94.70
2023-03-15T04:16:27.419Z,94.60
2023-03-15T04:18:56.336Z,94.70
2023-03-15T04:21:24.341Z,94.70
2023-03-15T04:23:52.227Z,94.60
2023-03-15T04:26:21.461Z,94.60
2023-03-15T04:28:49.329Z,94.60
2023-03-15T04:31:17.227Z,94.70
2023-03-15T04:33:45.114Z,94.70
2023-03-15T04:36:18.414Z,94.80
2023-03-15T04:38:47.466Z,94.70
2023-03-15T04:41:15.886Z,94.80
2023-03-15T04:43:45.397Z,94.80
2023-03-15T04:46:13.307Z,94.90
2023-03-15T04:48:41.628Z,94.90
2023-03-15T04:51:09.501Z,94.90
2023-03-15T04:53:38.981Z,94.90
2023-03-15T04:56:07.510Z,94.80
2023-03-15T04:58:35.345Z,94.80
2023-03-15T05:01:04.733Z,94.70
2023-03-15T05:03:32.628Z,94.60
2023-03-15T05:06:07.969Z,94.60
2023-03-15T05:08:36.556Z,94.70
2023-03-15T05:11:05.045Z,94.70
2023-03-15T05:13:33.368Z,94.80
2023-03-15T05:16:01.307Z,94.80
2023-03-15T05:18:30.725Z,94.80
2023-03-15T05:20:58.601Z,94.90
2023-03-15T05:23:27.272Z,95.00
2023-03-15T05:25:56.722Z,95.00
2023-03-15T05:28:25.753Z,95.10
2023-03-15T05:30:54.531Z,95.00
2023-03-15T05:33:22.955Z,94.90
2023-03-15T05:35:55.549Z,95.00
2023-03-15T05:38:26.689Z,95.00
2023-03-15T05:40:55.074Z,95.00
2023-03-15T05:43:23.057Z,94.90
2023-03-15T05:45:51.177Z,94.80
2023-03-15T05:48:19.060Z,94.70
2023-03-15T05:50:46.960Z,94.70
2023-03-15T05:53:16.114Z,94.90
2023-03-15T05:55:43.982Z,94.70
2023-03-15T05:58:11.875Z,94.60
2023-03-15T06:00:39.718Z,94.80
2023-03-15T06:03:07.576Z,94.80
2023-03-15T06:05:35.434Z,94.80
2023-03-15T06:08:03.306Z,94.80
2023-03-15T06:10:33.770Z,94.80
2023-03-15T06:13:01.744Z,94.70
2023-03-15T06:15:29.649Z,94.80
2023-03-15T06:17:57.458Z,94.70
2023-03-15T06:20:25.342Z,94.80
2023-03-15T06:22:53.369Z,94.90
2023-03-15T06:25:21.196Z,94.70
2023-03-15T06:27:50.440Z,94.50
2023-03-15T06:30:18.765Z,94.70
2023-03-15T06:32:46.716Z,94.50
2023-03-15T06:35:14.712Z,94.00
2023-03-15T06:37:42.841Z,94.00
2023-03-15T06:40:12.098Z,94.10
2023-03-15T06:42:41.602Z,94.40
2023-03-15T06:45:11.679Z,94.30
2023-03-15T06:47:39.827Z,94.30
2023-03-15T06:50:08.806Z,94.20
2023-03-15T06:52:36.697Z,94.30
2023-03-15T06:55:04.963Z,94.30
2023-03-15T06:57:33.162Z,94.20
2023-03-15T07:00:00.993Z,93.80
2023-03-15T07:02:37.013Z,93.70
2023-03-15T07:05:05.419Z,93.80
2023-03-15T07:07:33.303Z,93.60
2023-03-15T07:10:01.138Z,93.60
2023-03-15T07:12:28.993Z,93.60
2023-03-15T07:14:56.875Z,93.60
2023-03-15T07:17:24.702Z,93.90
2023-03-15T07:19:56.536Z,93.50
2023-03-15T07:22:25.230Z,93.50
2023-03-15T07:24:53.189Z,93.10
2023-03-15T07:27:21.103Z,93.40
2023-03-15T07:29:49.572Z,93.50
2023-03-15T07:32:17.509Z,94.00
2023-03-15T07:34:45.396Z,94.00
2023-03-15T07:37:14.907Z,94.30
2023-03-15T07:39:42.768Z,94.50
2023-03-15T07:42:11.501Z,94.60
2023-03-15T07:44:39.377Z,94.90
2023-03-15T07:47:07.740Z,95.30
2023-03-15T07:49:35.602Z,95.40
2023-03-15T07:52:03.552Z,95.90
2023-03-15T07:54:34.461Z,95.90
2023-03-15T07:57:02.411Z,96.00
2023-03-15T07:59:30.427Z,96.10
2023-03-15T08:02:00.218Z,96.00
2023-03-15T08:04:29.377Z,96.00
2023-03-15T08:06:57.428Z,96.00
2023-03-15T08:09:25.971Z,96.10
2023-03-15T08:11:55.152Z,96.00
2023-03-15T08:14:22.983Z,96.00
2023-03-15T08:16:51.514Z,96.10
2023-03-15T08:19:19.332Z,96.10
2023-03-15T08:21:47.950Z,96.10
2023-03-15T08:24:16.281Z,96.20
2023-03-15T08:26:44.241Z,96.10
2023-03-15T08:29:13.481Z,96.10
2023-03-15T08:31:41.646Z,96.10
2023-03-15T08:34:09.573Z,96.10
2023-03-15T08:36:37.448Z,96.10
2023-03-15T08:39:06.421Z,96.10
2023-03-15T08:41:34.574Z,96.10
2023-03-15T08:44:02.500Z,96.10
2023-03-15T08:46:33.153Z,96.10
2023-03-15T08:49:01.317Z,96.10
2023-03-15T08:51:31.000Z,96.10
2023-03-15T08:53:59.143Z,96.00
2023-03-15T08:56:27.555Z,96.10
2023-03-15T08:58:55.607Z,95.90
2023-03-15T09:01:23.530Z,95.60
2023-03-15T09:03:53.032Z,95.90
2023-03-15T09:06:45.641Z,96.00
2023-03-15T09:09:19.857Z,95.80
2023-03-15T09:12:20.028Z,96.00
2023-03-15T09:14:59.935Z,96.10
2023-03-15T09:17:44.555Z,95.90
2023-03-15T09:20:34.275Z,95.90
2023-03-15T09:23:16.080Z,95.60
2023-03-15T09:25:52.542Z,95.30
2023-03-15T09:28:34.686Z,95.30
2023-03-15T09:31:12.166Z,94.90
2023-03-15T09:33:49.744Z,95.20
2023-03-15T09:36:39.216Z,95.90
2023-03-15T09:39:21.416Z,95.60
2023-03-15T09:41:58.398Z,95.70
2023-03-15T09:44:56.922Z,95.40
2023-03-15T09:47:47.181Z,95.20
2023-03-15T09:50:33.583Z,95.80
2023-03-15T09:53:15.991Z,95.70
2023-03-15T09:55:54.939Z,95.70
2023-03-15T09:58:37.842Z,94.60
2023-03-15T10:01:21.556Z,94.30
2023-03-15T10:03:58.093Z,94.00
2023-03-15T10:06:41.609Z,94.20
2023-03-15T10:09:23.938Z,94.90
2023-03-15T10:12:09.701Z,94.60
2023-03-15T10:15:09.500Z,94.10
2023-03-15T10:18:02.044Z,94.00
2023-03-15T10:20:46.001Z,94.20
2023-03-15T10:23:22.477Z,95.10
2023-03-15T10:26:00.094Z,94.40
2023-03-15T10:28:38.785Z,92.80
2023-03-15T10:31:25.858Z,93.50
2023-03-15T10:34:06.770Z,92.30
2023-03-15T10:36:38.630Z,91.90
2023-03-15T10:39:16.431Z,92.30
2023-03-15T10:41:57.324Z,91.40
2023-03-15T10:44:32.664Z,91.60
2023-03-15T10:47:22.658Z,92.20
2023-03-15T10:50:08.520Z,92.60
2023-03-15T10:52:43.768Z,92.90
2023-03-15T10:55:32.624Z,93.20
2023-03-15T10:58:32.752Z,93.20
2023-03-15T11:01:34.646Z,93.70
2023-03-15T11:04:59.006Z,93.60
2023-03-15T11:07:37.523Z,93.70
2023-03-15T11:10:18.963Z,94.10
2023-03-15T11:12:49.738Z,94.30
2023-03-15T11:15:38.198Z,94.60
2023-03-15T11:18:25.729Z,94.70
2023-03-15T11:21:07.520Z,94.50
2023-03-15T11:23:44.304Z,94.00
2023-03-15T11:26:39.198Z,94.20
2023-03-15T11:29:24.054Z,93.90
2023-03-15T11:32:09.908Z,93.80
2023-03-15T11:34:53.709Z,93.60
2023-03-15T11:37:40.104Z,94.20
2023-03-15T11:40:20.658Z,93.30
2023-03-15T11:43:01.317Z,93.60
2023-03-15T11:45:53.198Z,92.70
2023-03-15T11:48:35.349Z,93.60
2023-03-15T11:51:13.188Z,93.40
2023-03-15T11:53:51.079Z,93.20
2023-03-15T11:56:47.419Z,92.80
2023-03-15T11:59:38.044Z,91.00
2023-03-15T12:02:43.034Z,90.10
2023-03-15T12:05:47.761Z,90.00
2023-03-15T12:08:48.112Z,90.40
2023-03-15T12:11:49.680Z,90.10
2023-03-15T12:14:44.469Z,89.30
2023-03-15T12:17:52.041Z,90.30
2023-03-15T12:20:42.569Z,91.00
2023-03-15T12:23:43.618Z,91.30
2023-03-15T12:26:48.165Z,90.90
2023-03-15T12:29:28.708Z,89.60
2023-03-15T12:32:17.259Z,85.50
2023-03-15T12:35:20.970Z,84.40
2023-03-15T12:38:02.253Z,77.00
2023-03-15T12:40:58.381Z,74.50
2023-03-15T12:43:58.195Z,74.90
2023-03-15T12:47:01.085Z,73.50
2023-03-15T12:49:37.557Z,75.90
2023-03-15T12:52:43.313Z,76.20
2023-03-15T12:55:43.338Z,76.30
2023-03-15T12:58:25.537Z,78.40
2023-03-15T13:01:23.549Z,76.60
2023-03-15T13:04:07.310Z,78.20
2023-03-15T13:07:03.799Z,80.20
2023-03-15T13:09:59.775Z,76.60
2023-03-15T13:12:45.260Z,72.90
2023-03-15T13:15:43.962Z,72.70
2023-03-15T13:18:40.739Z,68.10
2023-03-15T13:21:49.875Z,66.60
2023-03-15T13:24:23.514Z,69.90
2023-03-15T13:27:01.317Z,67.30
2023-03-15T13:29:32.558Z,66.90
2023-03-15T13:32:12.713Z,59.90
2023-03-15T13:34:41.876Z,56.60
2023-03-15T13:37:15.088Z,60.00
2023-03-15T13:39:55.586Z,58.10
2023-03-15T13:42:25.446Z,58.90
2023-03-15T13:45:13.137Z,58.40
2023-03-15T13:47:42.345Z,59.80
2023-03-15T13:50:16.029Z,57.80
2023-03-15T13:52:44.565Z,64.00
2023-03-15T13:55:15.288Z,74.50
2023-03-15T13:57:43.503Z,76.30
2023-03-15T14:00:17.627Z,80.80
2023-03-15T14:02:49.413Z,83.30
2023-03-15T14:05:20.125Z,82.70
2023-03-15T14:07:51.171Z,84.30
2023-03-15T14:10:31.965Z,83.40
2023-03-15T14:13:17.574Z,83.80
2023-03-15T14:15:48.417Z,83.90
2023-03-15T14:18:20.491Z,83.50
2023-03-15T14:20:54.373Z,81.60
2023-03-15T14:23:25.508Z,78.40
2023-03-15T14:25:54.759Z,80.70
2023-03-15T14:28:24.472Z,79.90
2023-03-15T14:30:57.056Z,81.60
2023-03-15T14:33:29.898Z,83.40
2023-03-15T14:36:01.095Z,80.20
2023-03-15T14:38:34.142Z,75.90
2023-03-15T14:41:26.615Z,74.60
2023-03-15T14:43:54.779Z,74.20
2023-03-15T14:46:24.230Z,74.00
2023-03-15T14:48:52.891Z,71.70
2023-03-15T14:51:23.099Z,70.80
2023-03-15T14:53:54.388Z,72.00
2023-03-15T14:56:22.212Z,72.20
2023-03-15T14:58:50.517Z,73.20
2023-03-15T15:01:22.423Z,72.00
2023-03-15T15:03:54.594Z,70.60
2023-03-15T15:06:22.865Z,72.00
2023-03-15T15:08:53.152Z,70.00
2023-03-15T15:11:21.053Z,70.40
2023-03-15T15:13:48.932Z,71.40
2023-03-15T15:16:16.848Z,68.80
2023-03-15T15:18:44.679Z,69.70
2023-03-15T15:21:17.501Z,69.80
2023-03-15T15:23:57.964Z,68.50
2023-03-15T15:26:29.100Z,66.60
2023-03-15T15:28:57.837Z,65.80
2023-03-15T15:31:27.293Z,63.80
2023-03-15T15:33:56.941Z,65.10
2023-03-15T15:36:30.474Z,66.50
2023-03-15T15:39:01.262Z,69.10
2023-03-15T15:41:31.487Z,69.60
2023-03-15T15:43:59.442Z,71.40
2023-03-15T15:46:27.407Z,71.30
2023-03-15T15:48:55.434Z,71.00
2023-03-15T15:51:41.641Z,72.50
2023-03-15T15:54:15.024Z,73.00
2023-03-15T15:56:49.138Z,75.30
2023-03-15T15:59:18.270Z,74.30
2023-03-15T16:01:59.410Z,74.40
2023-03-15T16:04:28.398Z,73.00
2023-03-15T16:06:59.889Z,71.00
2023-03-15T16:09:30.118Z,72.80
2023-03-15T16:11:58.339Z,74.50
2023-03-15T16:14:26.256Z,77.80
2023-03-15T16:16:54.159Z,82.50
2023-03-15T16:19:21.993Z,84.20
2023-03-15T16:21:54.312Z,87.60
2023-03-15T16:24:26.939Z,87.40
2023-03-15T16:26:59.881Z,88.00
2023-03-15T16:29:33.712Z,88.40
2023-03-15T16:32:15.996Z,87.20
2023-03-15T16:34:47.628Z,87.30
2023-03-15T16:37:17.583Z,84.40
2023-03-15T16:39:50.554Z,85.10
2023-03-15T16:42:19.827Z,85.50
2023-03-15T16:44:47.953Z,86.20
2023-03-15T16:47:15.766Z,88.00
2023-03-15T16:49:43.580Z,88.80
2023-03-15T16:52:13.186Z,88.90
2023-03-15T16:54:42.664Z,90.10
2023-03-15T16:57:20.051Z,90.90
2023-03-15T16:59:47.908Z,91.10
2023-03-15T17:02:19.012Z,91.30
2023-03-15T17:04:47.706Z,91.50
2023-03-15T17:07:17.056Z,91.70
2023-03-15T17:09:47.744Z,92.00
2023-03-15T17:12:23.408Z,91.60
2023-03-15T17:14:51.938Z,91.90
2023-03-15T17:17:19.786Z,91.70
2023-03-15T17:19:49.138Z,91.60
2023-03-15T17:22:17.805Z,91.60
2023-03-15T17:24:45.810Z,92.10
2023-03-15T17:27:22.791Z,92.40
2023-03-15T17:29:50.674Z,92.40
2023-03-15T17:32:18.577Z,92.30
2023-03-15T17:34:47.318Z,92.30
2023-03-15T17:37:15.858Z,92.70
2023-03-15T17:39:45.525Z,93.00
2023-03-15T17:42:14.550Z,93.40
2023-03-15T17:44:43.715Z,93.40
2023-03-15T17:47:12.665Z,93.60
2023-03-15T17:49:40.878Z,93.30
2023-03-15T17:52:15.173Z,93.10
2023-03-15T17:54:43.034Z,93.10
2023-03-15T17:57:12.956Z,93.00
2023-03-15T17:59:40.855Z,93.10
2023-03-15T18:02:16.287Z,92.80
2023-03-15T18:04:44.228Z,93.00
2023-03-15T18:07:12.127Z,93.10
2023-03-15T18:09:40.505Z,93.10
2023-03-15T18:12:10.967Z,93.30
2023-03-15T18:14:38.804Z,93.50
2023-03-15T18:17:06.657Z,93.60
2023-03-15T18:19:35.841Z,93.00
2023-03-15T18:22:03.837Z,93.20
2023-03-15T18:24:34.216Z,93.30
2023-03-15T18:27:02.630Z,93.30
2023-03-15T18:29:31.709Z,93.10
2023-03-15T18:31:59.669Z,93.10
2023-03-15T18:34:27.580Z,92.80
2023-03-15T18:36:56.768Z,93.20
2023-03-15T18:39:25.272Z,93.50
2023-03-15T18:41:53.121Z,93.30
2023-03-15T18:44:20.948Z,93.40
2023-03-15T18:46:48.776Z,93.60
2023-03-15T18:49:16.609Z,93.70
2023-03-15T18:51:44.536Z,93.70
2023-03-15T18:54:13.954Z,93.70
2023-03-15T18:56:43.211Z,93.70
2023-03-15T18:59:12.104Z,93.80
2023-03-15T19:01:39.976Z,94.00
2023-03-15T19:04:07.916Z,93.70
2023-03-15T19:06:35.798Z,93.50
2023-03-15T19:09:05.234Z,93.90
2023-03-15T19:11:38.196Z,94.10
2023-03-15T19:14:06.054Z,94.10
2023-03-15T19:16:34.133Z,94.10
2023-03-15T19:19:02.296Z,94.10
2023-03-15T19:21:30.158Z,93.60
2023-03-15T19:23:58.397Z,93.80
2023-03-15T19:26:26.473Z,93.70
2023-03-15T19:28:56.244Z,93.70
2023-03-15T19:31:24.279Z,93.70
2023-03-15T19:33:52.104Z,93.70
2023-03-15T19:36:20.028Z,93.70
2023-03-15T19:38:47.996Z,93.90
2023-03-15T19:41:15.860Z,93.90
2023-03-15T19:43:43.679Z,93.90
2023-03-15T19:46:13.955Z,93.90
2023-03-15T19:48:42.150Z,93.70
2023-03-15T19:51:10.019Z,93.70
2023-03-15T19:53:37.996Z,93.70
2023-03-15T19:56:07.127Z,94.00
2023-03-15T19:58:35.091Z,94.10
2023-03-15T20:01:02.970Z,93.80
2023-03-15T20:03:34.668Z,93.90
2023-03-15T20:06:06.654Z,94.00
2023-03-15T20:08:34.582Z,94.20
2023-03-15T20:11:03.963Z,94.30
2023-03-15T20:13:31.842Z,94.20
2023-03-15T20:15:59.831Z,94.20
2023-03-15T20:18:27.878Z,94.10
2023-03-15T20:20:57.030Z,93.60
2023-03-15T20:23:24.952Z,94.00
2023-03-15T20:25:52.904Z,94.20
2023-03-15T20:28:20.899Z,93.90
2023-03-15T20:30:48.778Z,93.80
2023-03-15T20:33:16.624Z,93.40
2023-03-15T20:35:44.796Z,92.90
2023-03-15T20:38:18.312Z,93.10
2023-03-15T20:40:46.172Z,92.80
2023-03-15T20:43:14.007Z,93.10
2023-03-15T20:45:42.222Z,92.60
2023-03-15T20:48:10.040Z,92.80
2023-03-15T20:50:38.158Z,92.90
2023-03-15T20:53:06.048Z,92.40
2023-03-15T20:55:35.249Z,92.40
2023-03-15T20:58:03.212Z,92.90
2023-03-15T21:00:31.781Z,92.10
2023-03-15T21:02:59.713Z,91.90
2023-03-15T21:05:28.902Z,92.20
2023-03-15T21:07:57.804Z,91.80
2023-03-15T21:10:25.848Z,91.80
2023-03-15T21:12:55.043Z,92.20
2023-03-15T21:15:24.153Z,92.30
2023-03-15T21:17:53.877Z,92.50
2023-03-15T21:20:22.018Z,92.10
2023-03-15T21:22:49.917Z,92.00
2023-03-15T21:25:18.064Z,91.90
2023-03-15T21:27:46.877Z,92.00
2023-03-15T21:30:16.313Z,92.00
2023-03-15T21:32:44.806Z,92.10
2023-03-15T21:35:13.257Z,92.20
2023-03-15T21:37:41.213Z,92.20
2023-03-15T21:40:10.244Z,91.80
2023-03-15T21:42:38.310Z,91.70
2023-03-15T21:45:08.100Z,91.90
2023-03-15T21:47:37.356Z,92.00
2023-03-15T21:50:05.929Z,92.20
2023-03-15T21:52:33.897Z,91.80
2023-03-15T21:55:02.047Z,92.10
2023-03-15T21:57:29.951Z,92.00
2023-03-15T21:59:57.811Z,92.10
2023-03-15T22:02:26.194Z,91.90
2023-03-15T22:04:55.404Z,91.80
2023-03-15T22:07:23.275Z,91.90
2023-03-15T22:09:53.075Z,92.50
2023-03-15T22:12:21.045Z,92.20
2023-03-15T22:14:56.814Z,92.00
2023-03-15T22:17:32.694Z,92.00
2023-03-15T22:20:02.045Z,91.80
2023-03-15T22:22:30.118Z,92.00
2023-03-15T22:24:57.952Z,91.90
2023-03-15T22:27:25.788Z,91.50
2023-03-15T22:29:53.645Z,91.30
2023-03-15T22:32:21.481Z,91.80
2023-03-15T22:34:49.308Z,91.80
2023-03-15T22:37:18.535Z,90.80
2023-03-15T22:39:46.390Z,91.80
2023-03-15T22:42:14.282Z,92.20
2023-03-15T22:44:42.105Z,91.60
2023-03-15T22:47:10.489Z,91.40
2023-03-15T22:49:38.482Z,91.40
2023-03-15T22:52:06.803Z,91.50
2023-03-15T22:54:35.968Z,91.50
2023-03-15T22:57:03.836Z,91.40
2023-03-15T22:59:31.670Z,91.10
2023-03-15T23:01:59.633Z,91.40
2023-03-15T23:04:27.541Z,91.20
2023-03-15T23:06:55.385Z,91.50
2023-03-15T23:09:23.228Z,91.30
2023-03-15T23:11:52.708Z,91.80
2023-03-15T23:14:20.662Z,92.20
2023-03-15T23:16:48.938Z,92.50
2023-03-15T23:19:16.875Z,92.30
2023-03-15T23:21:44.737Z,91.90
2023-03-15T23:24:13.882Z,91.90
2023-03-15T23:26:41.783Z,91.90
2023-03-15T23:29:11.519Z,92.10
2023-03-15T23:31:40.003Z,92.20
2023-03-15T23:34:08.208Z,92.40
2023-03-15T23:36:36.409Z,92.40
2023-03-15T23:39:04.322Z,92.80
2023-03-15T23:41:32.253Z,92.80
2023-03-15T23:44:00.134Z,92.50
2023-03-15T23:46:29.519Z,92.60
2023-03-15T23:48:57.379Z,92.60
2023-03-15T23:51:25.195Z,92.80
2023-03-15T23:53:53.014Z,92.80
2023-03-15T23:56:20.884Z,92.90
2023-03-15T23:58:48.684Z,92.90
